GMA01 EGPF-EGPO

Flight info

Callsign GMA01
Flight time 0h 45m
Altitude 8000
Route VFR
Aircraft BE20/L-VGD/C

Departure

Time 2026-05-04 08:02
Airport Glasgow Airport (EGPF)

Arrival

Time 2026-05-04 08:47
Airport Stornoway Airport (EGPO)
Time Latitude Longitude Altitude Speed Heading
2026-05-04 07:41 55.87241 -4.42514 24 ft 0 kts 289°
2026-05-04 07:57 55.87242 -4.42532 26 ft 6 kts 261°
2026-05-04 07:58 55.87224 -4.42579 25 ft 10 kts 225°
2026-05-04 07:58 55.87236 -4.42679 24 ft 6 kts 320°
2026-05-04 07:58 55.87300 -4.42650 26 ft 12 kts 19°
2026-05-04 07:58 55.87415 -4.42545 24 ft 21 kts 48°
2026-05-04 07:59 55.87519 -4.42351 24 ft 25 kts 47°
2026-05-04 07:59 55.87610 -4.42177 24 ft 18 kts 40°
2026-05-04 07:59 55.87647 -4.42152 26 ft 0 kts
2026-05-04 08:00 55.87658 -4.42150 26 ft 7 kts
2026-05-04 08:00 55.87738 -4.42207 24 ft 12 kts 316°
2026-05-04 08:00 55.87757 -4.42281 24 ft 8 kts 223°
2026-05-04 08:02 55.83140 -4.49832 2827 ft 164 kts 213°
2026-05-04 08:02 55.82110 -4.50845 3247 ft 177 kts 221°
2026-05-04 08:02 55.81286 -4.52570 3506 ft 185 kts 247°
2026-05-04 08:03 55.80938 -4.54671 4135 ft 174 kts 267°
2026-05-04 08:03 55.81000 -4.56839 4579 ft 180 kts 281°
2026-05-04 08:03 55.81367 -4.58978 5023 ft 179 kts 296°
2026-05-04 08:03 55.82286 -4.60202 5909 ft 166 kts 345°
2026-05-04 08:04 55.83415 -4.60232 6686 ft 160 kts 353°
2026-05-04 08:04 55.84494 -4.60554 7302 ft 157 kts 337°
2026-05-04 08:04 55.85524 -4.61204 7935 ft 159 kts 335°
2026-05-04 08:04 55.86664 -4.61987 8004 ft 192 kts 335°
2026-05-04 08:05 55.87987 -4.62890 8019 ft 213 kts 336°
2026-05-04 08:05 55.89409 -4.63851 8014 ft 224 kts 336°
2026-05-04 08:05 55.90868 -4.64841 8002 ft 230 kts 336°
2026-05-04 08:05 55.92369 -4.65864 8011 ft 231 kts 336°
2026-05-04 08:06 55.93876 -4.66891 8011 ft 227 kts 336°
2026-05-04 08:06 55.95324 -4.67882 8012 ft 225 kts 336°
2026-05-04 08:06 55.96783 -4.68881 8011 ft 224 kts 336°
2026-05-04 08:06 55.98236 -4.69876 8010 ft 224 kts 336°
2026-05-04 08:08 56.08416 -4.76873 7996 ft 226 kts 335°
2026-05-04 08:08 56.09887 -4.77887 7997 ft 226 kts 335°
2026-05-04 08:10 56.21683 -4.86048 8011 ft 231 kts 336°
2026-05-04 08:11 56.23182 -4.87088 8002 ft 230 kts 336°
2026-05-04 08:11 56.26145 -4.89149 8016 ft 229 kts 335°
2026-05-04 08:11 56.27639 -4.90190 8016 ft 231 kts 335°
2026-05-04 08:12 56.29144 -4.91239 8011 ft 232 kts 336°
2026-05-04 08:12 56.30643 -4.92282 8022 ft 231 kts 335°
2026-05-04 08:12 56.32140 -4.93328 8021 ft 231 kts 335°
2026-05-04 08:12 56.33639 -4.94376 8048 ft 231 kts 335°
2026-05-04 08:13 56.35141 -4.95425 8048 ft 232 kts 335°
2026-05-04 08:13 56.36643 -4.96477 8048 ft 232 kts 335°
2026-05-04 08:13 56.38147 -4.97529 8052 ft 232 kts 335°
2026-05-04 08:13 56.39652 -4.98583 8052 ft 232 kts 335°
2026-05-04 08:14 56.41154 -4.99637 8052 ft 232 kts 335°
2026-05-04 08:14 56.42657 -5.00693 8052 ft 232 kts 335°
2026-05-04 08:14 56.44159 -5.01749 8054 ft 231 kts 335°
2026-05-04 08:16 56.54632 -5.09134 8066 ft 232 kts 335°
2026-05-04 08:16 56.56133 -5.10195 8066 ft 231 kts 335°
2026-05-04 08:16 56.57633 -5.11257 8067 ft 231 kts 335°
2026-05-04 08:17 56.59130 -5.12319 8065 ft 231 kts 335°
2026-05-04 08:17 56.60625 -5.13379 8067 ft 231 kts 335°
2026-05-04 08:17 56.62126 -5.14445 8064 ft 232 kts 335°
2026-05-04 08:17 56.63627 -5.15512 8065 ft 232 kts 335°
2026-05-04 08:19 56.74102 -5.22980 8064 ft 232 kts 335°
2026-05-04 08:19 56.75598 -5.24050 8056 ft 231 kts 335°
2026-05-04 08:20 56.77092 -5.25119 8051 ft 230 kts 335°
2026-05-04 08:20 56.78581 -5.26186 8057 ft 230 kts 335°
2026-05-04 08:20 56.80065 -5.27250 8052 ft 228 kts 335°
2026-05-04 08:20 56.81544 -5.28315 8049 ft 229 kts 335°
2026-05-04 08:21 56.83027 -5.29379 8055 ft 229 kts 335°
2026-05-04 08:21 56.84510 -5.30444 8043 ft 229 kts 335°
2026-05-04 08:21 56.85993 -5.31512 8052 ft 229 kts 335°
2026-05-04 08:21 56.87457 -5.32567 8043 ft 229 kts 335°
2026-05-04 08:22 56.88962 -5.33652 8049 ft 230 kts 335°
2026-05-04 08:22 56.90432 -5.34711 8044 ft 230 kts 335°
2026-05-04 08:24 57.00772 -5.42199 8058 ft 229 kts 334°
2026-05-04 08:24 57.02251 -5.43273 8053 ft 229 kts 334°
2026-05-04 08:24 57.03726 -5.44345 8057 ft 228 kts 334°
2026-05-04 08:24 57.05199 -5.45418 8048 ft 228 kts 335°
2026-05-04 08:25 57.06668 -5.46489 8053 ft 227 kts 334°
2026-05-04 08:25 57.08137 -5.47560 8052 ft 227 kts 334°
2026-05-04 08:25 57.09609 -5.48634 8054 ft 228 kts 334°
2026-05-04 08:25 57.11086 -5.49712 8054 ft 228 kts 334°
2026-05-04 08:26 57.12562 -5.50791 8053 ft 229 kts 334°
2026-05-04 08:27 57.22980 -5.58009 8049 ft 229 kts 337°
2026-05-04 08:28 57.24447 -5.59008 8046 ft 227 kts 332°
2026-05-04 08:28 57.25845 -5.60335 8052 ft 226 kts 328°
2026-05-04 08:28 57.27245 -5.61647 8049 ft 226 kts 331°
2026-05-04 08:28 57.28684 -5.62828 8044 ft 227 kts 333°
2026-05-04 08:29 57.30133 -5.63985 8042 ft 227 kts 333°
2026-05-04 08:29 57.31576 -5.65160 8045 ft 227 kts 332°
2026-05-04 08:29 57.33016 -5.66347 8047 ft 227 kts 332°
2026-05-04 08:31 57.43110 -5.74660 8039 ft 227 kts 332°
2026-05-04 08:33 57.53182 -5.83002 8038 ft 227 kts 332°
2026-05-04 08:33 57.54621 -5.84200 8039 ft 227 kts 332°
2026-05-04 08:35 57.64662 -5.92575 8033 ft 225 kts 332°
2026-05-04 08:35 57.66092 -5.93771 8032 ft 225 kts 332°
2026-05-04 08:35 57.67523 -5.94970 8032 ft 225 kts 332°
2026-05-04 08:35 57.68954 -5.96170 8025 ft 225 kts 332°
2026-05-04 08:37 57.77530 -6.03383 8023 ft 225 kts 332°
2026-05-04 08:37 57.78942 -6.04575 8019 ft 226 kts 331°
2026-05-04 08:37 57.80375 -6.05784 8020 ft 226 kts 331°
2026-05-04 08:38 57.81824 -6.07008 8019 ft 225 kts 331°
2026-05-04 08:38 57.83251 -6.08215 8019 ft 225 kts 331°
2026-05-04 08:38 57.84657 -6.09406 8019 ft 225 kts 331°
2026-05-04 08:40 57.94858 -6.18070 6884 ft 231 kts 331°
2026-05-04 08:40 57.96320 -6.19317 6638 ft 230 kts 331°
2026-05-04 08:40 57.97763 -6.20546 6382 ft 225 kts 331°
2026-05-04 08:41 57.99174 -6.21751 6118 ft 221 kts 331°
2026-05-04 08:41 58.00567 -6.22943 5840 ft 219 kts 330°
2026-05-04 08:41 58.01951 -6.24129 5575 ft 218 kts 331°
2026-05-04 08:41 58.03329 -6.25313 5313 ft 217 kts 330°
2026-05-04 08:42 58.04702 -6.26496 5052 ft 217 kts 330°
2026-05-04 08:42 58.06068 -6.27671 4803 ft 215 kts 330°
2026-05-04 08:42 58.07422 -6.28826 4535 ft 211 kts 330°
2026-05-04 08:42 58.08753 -6.29956 4271 ft 207 kts 331°
2026-05-04 08:43 58.10112 -6.30828 3996 ft 207 kts 343°
2026-05-04 08:43 58.11544 -6.31217 3740 ft 208 kts 348°
2026-05-04 08:43 58.13004 -6.31491 3307 ft 213 kts 349°
2026-05-04 08:43 58.14486 -6.31763 2865 ft 214 kts 348°
2026-05-04 08:44 58.15952 -6.32070 2426 ft 214 kts 348°
2026-05-04 08:44 58.17423 -6.32399 1958 ft 211 kts 348°
2026-05-04 08:46 58.25624 -6.30925 601 ft 164 kts 88°
2026-05-04 08:46 58.25208 -6.29017 552 ft 157 kts 147°
2026-05-04 08:46 58.24249 -6.28657 524 ft 136 kts 206°
2026-05-04 08:46 58.23405 -6.29456 414 ft 138 kts 211°
2026-05-04 08:47 58.22653 -6.30170 414 ft 111 kts 213°
2026-05-04 08:47 58.22031 -6.30949 198 ft 102 kts 228°
2026-05-04 08:47 58.21701 -6.32000 32 ft 85 kts 244°
2026-05-04 08:47 58.21477 -6.32762 13 ft 25 kts 239°
2026-05-04 08:48 58.21427 -6.32920 12 ft 15 kts 237°
2026-05-04 08:48 58.21341 -6.33074 14 ft 23 kts 168°
2026-05-04 08:48 58.21135 -6.33029 19 ft 29 kts 177°
2026-05-04 08:48 58.20943 -6.32992 23 ft 21 kts 156°
2026-05-04 08:49 58.20929 -6.32793 22 ft 23 kts 83°
2026-05-04 08:50 58.21345 -6.32467 17 ft 0 kts 352°